createdAt,value
2019-02-07T00:00:15.315Z,1018.24
2019-02-07T00:00:55.960Z,1018.25
2019-02-07T00:01:36.547Z,1018.22
2019-02-07T00:02:17.143Z,1018.24
2019-02-07T00:02:57.747Z,1018.23
2019-02-07T00:03:38.364Z,1018.24
2019-02-07T00:04:19.295Z,1018.24
2019-02-07T00:04:59.985Z,1018.2
2019-02-07T00:05:40.634Z,1018.2
2019-02-07T00:06:21.231Z,1018.2
2019-02-07T00:07:01.911Z,1018.21
2019-02-07T00:07:42.515Z,1018.22
2019-02-07T00:08:23.179Z,1018.18
2019-02-07T00:09:03.789Z,1018.2
2019-02-07T00:09:44.412Z,1018.2
2019-02-07T00:10:25.010Z,1018.2
2019-02-07T00:11:05.705Z,1018.21
2019-02-07T00:11:46.393Z,1018.18
2019-02-07T00:12:27.187Z,1018.17
2019-02-07T00:13:07.847Z,1018.2
2019-02-07T00:13:48.499Z,1018.18
2019-02-07T00:14:39.267Z,1018.17
2019-02-07T00:15:09.689Z,1018.2
2019-02-07T00:15:50.277Z,1018.15
2019-02-07T00:16:30.900Z,1018.19
2019-02-07T00:17:11.507Z,1018.17
2019-02-07T00:17:52.128Z,1018.16
2019-02-07T00:18:32.721Z,1018.12
2019-02-07T00:19:13.314Z,1018.16
2019-02-07T00:19:53.915Z,1018.13
2019-02-07T00:20:34.518Z,1018.15
2019-02-07T00:21:15.121Z,1018.14
2019-02-07T00:21:55.727Z,1018.13
2019-02-07T00:22:39.008Z,1018.1
2019-02-07T00:23:17.004Z,1018.13
2019-02-07T00:23:57.671Z,1018.11
2019-02-07T00:24:42.666Z,1018.1
2019-02-07T00:25:18.876Z,1018.09
2019-02-07T00:25:59.563Z,1018.06
2019-02-07T00:26:40.169Z,1018.09
2019-02-07T00:27:20.759Z,1018.08
2019-02-07T00:28:01.363Z,1018.09
2019-02-07T00:28:41.971Z,1018.06
2019-02-07T00:29:22.572Z,1018.1
2019-02-07T00:30:03.171Z,1018.1
2019-02-07T00:30:43.769Z,1018.08
2019-02-07T00:31:24.370Z,1018.1
2019-02-07T00:32:04.979Z,1018.16
2019-02-07T00:32:45.576Z,1018.11
2019-02-07T00:33:26.199Z,1018.07
2019-02-07T00:34:06.809Z,1018.07
2019-02-07T00:34:47.461Z,1018.07
2019-02-07T00:35:28.059Z,1018.07
2019-02-07T00:36:08.665Z,1018.03
2019-02-07T00:36:49.323Z,1018.03
2019-02-07T00:37:29.925Z,1017.99
2019-02-07T00:38:10.525Z,1018
2019-02-07T00:38:51.121Z,1018.01
2019-02-07T00:39:31.755Z,1017.99
2019-02-07T00:40:12.356Z,1018.01
2019-02-07T00:40:52.949Z,1017.99
2019-02-07T00:41:33.561Z,1017.99
2019-02-07T00:42:14.189Z,1017.97
2019-02-07T00:42:54.813Z,1017.98
2019-02-07T00:43:35.428Z,1017.98
2019-02-07T00:44:16.017Z,1017.98
2019-02-07T00:44:56.645Z,1017.99
2019-02-07T00:45:37.279Z,1017.99
2019-02-07T00:46:17.867Z,1017.98
2019-02-07T00:46:58.470Z,1018.02
2019-02-07T00:47:39.126Z,1017.99
2019-02-07T00:48:19.731Z,1017.99
2019-02-07T00:49:00.329Z,1018.02
2019-02-07T00:49:41.031Z,1017.99
2019-02-07T00:50:21.651Z,1017.98
2019-02-07T00:51:02.244Z,1017.95
2019-02-07T00:51:42.837Z,1017.97
2019-02-07T00:52:23.429Z,1017.98
2019-02-07T00:53:04.025Z,1017.98
2019-02-07T00:53:44.642Z,1017.93
2019-02-07T00:54:25.267Z,1017.9
2019-02-07T00:55:05.876Z,1017.96
2019-02-07T00:55:46.517Z,1017.91
2019-02-07T00:56:27.115Z,1017.9
2019-02-07T00:57:07.711Z,1017.91
2019-02-07T00:57:48.318Z,1017.93
2019-02-07T00:58:28.931Z,1017.92
2019-02-07T00:59:09.543Z,1017.92
2019-02-07T00:59:50.184Z,1017.95
2019-02-07T01:00:30.793Z,1017.94
2019-02-07T01:01:11.449Z,1017.94
2019-02-07T01:01:52.081Z,1017.94
2019-02-07T01:02:32.665Z,1017.95
2019-02-07T01:03:13.265Z,1017.95
2019-02-07T01:03:53.876Z,1017.93
2019-02-07T01:04:34.471Z,1017.95
2019-02-07T01:05:15.078Z,1017.91
2019-02-07T01:05:55.723Z,1017.91
2019-02-07T01:06:36.349Z,1017.93
2019-02-07T01:07:16.956Z,1017.94
2019-02-07T01:07:57.563Z,1017.93
2019-02-07T01:08:38.237Z,1017.96
2019-02-07T01:09:18.896Z,1017.94
2019-02-07T01:09:59.501Z,1017.92
2019-02-07T01:10:40.158Z,1017.91
2019-02-07T01:11:20.765Z,1017.95
2019-02-07T01:12:01.389Z,1017.88
2019-02-07T01:12:41.993Z,1017.89
2019-02-07T01:13:22.605Z,1017.87
2019-02-07T01:14:03.237Z,1017.87
2019-02-07T01:14:43.877Z,1017.88
2019-02-07T01:15:24.530Z,1017.87
2019-02-07T01:16:05.189Z,1017.86
2019-02-07T01:16:45.783Z,1017.86
2019-02-07T01:17:26.361Z,1017.84
2019-02-07T01:18:06.989Z,1017.82
2019-02-07T01:18:47.631Z,1017.83
2019-02-07T01:19:28.253Z,1017.8
2019-02-07T01:20:08.942Z,1017.79
2019-02-07T01:20:49.605Z,1017.76
2019-02-07T01:21:30.222Z,1017.76
2019-02-07T01:22:10.867Z,1017.77
2019-02-07T01:22:51.538Z,1017.75
2019-02-07T01:23:32.149Z,1017.77
2019-02-07T01:24:12.795Z,1017.75
2019-02-07T01:24:53.454Z,1017.73
2019-02-07T01:25:34.211Z,1017.73
2019-02-07T01:26:14.794Z,1017.76
2019-02-07T01:26:55.438Z,1017.73
2019-02-07T01:27:36.171Z,1017.75
2019-02-07T01:28:16.827Z,1017.7
2019-02-07T01:28:57.468Z,1017.7
2019-02-07T01:29:38.089Z,1017.69
2019-02-07T01:30:18.723Z,1017.7
2019-02-07T01:30:59.369Z,1017.71
2019-02-07T01:31:40.015Z,1017.71
2019-02-07T01:32:20.648Z,1017.73
2019-02-07T01:33:01.277Z,1017.76
2019-02-07T01:33:41.944Z,1017.74
2019-02-07T01:34:22.549Z,1017.75
2019-02-07T01:35:03.147Z,1017.74
2019-02-07T01:35:43.751Z,1017.78
2019-02-07T01:36:24.345Z,1017.78
2019-02-07T01:37:04.949Z,1017.76
2019-02-07T01:37:45.583Z,1017.75
2019-02-07T01:38:26.189Z,1017.74
2019-02-07T01:39:06.811Z,1017.71
2019-02-07T01:39:47.418Z,1017.75
2019-02-07T01:40:28.029Z,1017.75
2019-02-07T01:41:08.621Z,1017.73
2019-02-07T01:41:49.215Z,1017.71
2019-02-07T01:42:29.814Z,1017.71
2019-02-07T01:43:10.421Z,1017.68
2019-02-07T01:43:51.041Z,1017.69
2019-02-07T01:44:31.645Z,1017.63
2019-02-07T01:45:13.188Z,1017.62
2019-02-07T01:45:52.889Z,1017.67
2019-02-07T01:46:33.483Z,1017.65
2019-02-07T01:47:14.101Z,1017.65
2019-02-07T01:47:54.769Z,1017.67
2019-02-07T01:48:35.361Z,1017.67
2019-02-07T01:49:15.963Z,1017.68
2019-02-07T01:49:56.635Z,1017.7
2019-02-07T01:50:37.185Z,1017.68
2019-02-07T01:51:17.811Z,1017.67
2019-02-07T01:51:58.411Z,1017.68
2019-02-07T01:52:39.023Z,1017.64
2019-02-07T01:53:19.690Z,1017.66
2019-02-07T01:54:00.287Z,1017.62
2019-02-07T01:54:40.903Z,1017.64
2019-02-07T01:55:21.558Z,1017.65
2019-02-07T01:56:02.258Z,1017.62
2019-02-07T01:56:42.866Z,1017.61
2019-02-07T01:57:23.489Z,1017.62
2019-02-07T01:58:04.093Z,1017.63
2019-02-07T01:58:44.713Z,1017.58
2019-02-07T01:59:25.309Z,1017.61
2019-02-07T02:00:05.958Z,1017.59
2019-02-07T02:00:46.566Z,1017.62
2019-02-07T02:01:27.191Z,1017.64
2019-02-07T02:02:07.841Z,1017.63
2019-02-07T02:02:48.432Z,1017.63
2019-02-07T02:03:29.036Z,1017.59
2019-02-07T02:04:09.634Z,1017.59
2019-02-07T02:04:50.237Z,1017.58
2019-02-07T02:05:30.845Z,1017.6
2019-02-07T02:06:11.441Z,1017.63
2019-02-07T02:06:52.055Z,1017.59
2019-02-07T02:07:32.653Z,1017.64
2019-02-07T02:08:13.260Z,1017.64
2019-02-07T02:08:53.853Z,1017.66
2019-02-07T02:09:34.490Z,1017.67
2019-02-07T02:10:16.642Z,1017.67
2019-02-07T02:10:57.239Z,1017.68
2019-02-07T02:11:37.833Z,1017.66
2019-02-07T02:12:18.447Z,1017.68
2019-02-07T02:12:59.052Z,1017.69
2019-02-07T02:13:39.664Z,1017.7
2019-02-07T02:14:20.254Z,1017.69
2019-02-07T02:15:00.855Z,1017.69
2019-02-07T02:15:41.466Z,1017.68
2019-02-07T02:16:24.071Z,1017.64
2019-02-07T02:17:02.709Z,1017.66
2019-02-07T02:17:43.320Z,1017.67
2019-02-07T02:18:23.923Z,1017.67
2019-02-07T02:19:04.528Z,1017.65
2019-02-07T02:19:45.153Z,1017.68
2019-02-07T02:20:25.768Z,1017.68
2019-02-07T02:21:06.400Z,1017.7
2019-02-07T02:21:47.040Z,1017.66
2019-02-07T02:22:27.643Z,1017.65
2019-02-07T02:23:08.239Z,1017.68
2019-02-07T02:23:48.831Z,1017.69
2019-02-07T02:24:29.413Z,1017.71
2019-02-07T02:25:09.998Z,1017.68
2019-02-07T02:25:50.634Z,1017.68
2019-02-07T02:26:31.285Z,1017.63
2019-02-07T02:27:11.884Z,1017.64
2019-02-07T02:27:52.565Z,1017.65
2019-02-07T02:28:33.091Z,1017.67
2019-02-07T02:29:13.697Z,1017.64
2019-02-07T02:29:54.301Z,1017.62
2019-02-07T02:30:34.911Z,1017.62
2019-02-07T02:31:15.509Z,1017.63
2019-02-07T02:31:56.108Z,1017.64
2019-02-07T02:32:36.706Z,1017.6
2019-02-07T02:33:17.369Z,1017.62
2019-02-07T02:33:57.974Z,1017.62
2019-02-07T02:34:38.569Z,1017.61
2019-02-07T02:35:19.175Z,1017.61
2019-02-07T02:35:59.773Z,1017.59
2019-02-07T02:36:40.384Z,1017.56
2019-02-07T02:37:20.986Z,1017.6
2019-02-07T02:38:01.606Z,1017.58
2019-02-07T02:38:42.224Z,1017.54
2019-02-07T02:39:22.897Z,1017.55
2019-02-07T02:40:03.507Z,1017.56
2019-02-07T02:40:44.183Z,1017.52
2019-02-07T02:41:24.780Z,1017.51
2019-02-07T02:42:05.383Z,1017.51
2019-02-07T02:42:46.026Z,1017.5
2019-02-07T02:43:26.615Z,1017.49
2019-02-07T02:44:07.197Z,1017.52
2019-02-07T02:44:47.799Z,1017.48
2019-02-07T02:45:36.879Z,1017.48
2019-02-07T02:46:08.988Z,1017.52
2019-02-07T02:46:49.597Z,1017.49
2019-02-07T02:47:30.196Z,1017.49
2019-02-07T02:48:10.785Z,1017.46
2019-02-07T02:48:51.383Z,1017.48
2019-02-07T02:49:31.988Z,1017.5
2019-02-07T02:50:12.620Z,1017.45
2019-02-07T02:50:53.222Z,1017.48
2019-02-07T02:51:33.829Z,1017.46
2019-02-07T02:52:14.462Z,1017.45
2019-02-07T02:52:55.068Z,1017.46
2019-02-07T02:53:35.664Z,1017.44
2019-02-07T02:54:16.268Z,1017.43
2019-02-07T02:54:56.896Z,1017.46
2019-02-07T02:55:37.520Z,1017.5
2019-02-07T02:56:18.137Z,1017.48
2019-02-07T02:56:58.725Z,1017.5
2019-02-07T02:57:39.327Z,1017.45
2019-02-07T02:58:19.941Z,1017.47
2019-02-07T02:59:00.546Z,1017.5
2019-02-07T02:59:41.174Z,1017.53
2019-02-07T03:00:21.790Z,1017.51
2019-02-07T03:01:02.392Z,1017.53
2019-02-07T03:01:43.059Z,1017.5
2019-02-07T03:02:23.675Z,1017.54
2019-02-07T03:03:04.286Z,1017.52
2019-02-07T03:03:44.884Z,1017.54
2019-02-07T03:04:25.480Z,1017.51
2019-02-07T03:05:06.084Z,1017.49
2019-02-07T03:05:46.680Z,1017.48
2019-02-07T03:06:27.286Z,1017.53
2019-02-07T03:07:07.882Z,1017.5
2019-02-07T03:07:48.462Z,1017.52
2019-02-07T03:08:29.056Z,1017.52
2019-02-07T03:09:09.660Z,1017.55
2019-02-07T03:09:50.262Z,1017.53
2019-02-07T03:10:30.863Z,1017.52
2019-02-07T03:11:11.483Z,1017.51
2019-02-07T03:11:52.084Z,1017.53
2019-02-07T03:12:32.703Z,1017.53
2019-02-07T03:13:14.910Z,1017.49
2019-02-07T03:13:55.514Z,1017.51
2019-02-07T03:14:36.116Z,1017.49
2019-02-07T03:15:16.720Z,1017.48
2019-02-07T03:15:57.338Z,1017.46
2019-02-07T03:16:37.950Z,1017.46
2019-02-07T03:17:18.548Z,1017.4
2019-02-07T03:17:59.170Z,1017.43
2019-02-07T03:18:39.787Z,1017.42
2019-02-07T03:19:20.428Z,1017.39
2019-02-07T03:20:01.028Z,1017.39
2019-02-07T03:20:41.618Z,1017.41
2019-02-07T03:21:22.239Z,1017.41
2019-02-07T03:22:02.888Z,1017.43
2019-02-07T03:22:43.486Z,1017.38
2019-02-07T03:23:24.083Z,1017.43
2019-02-07T03:24:04.696Z,1017.41
2019-02-07T03:24:45.312Z,1017.38
2019-02-07T03:25:25.934Z,1017.38
2019-02-07T03:26:06.552Z,1017.37
2019-02-07T03:26:47.156Z,1017.36
2019-02-07T03:27:27.813Z,1017.36
2019-02-07T03:28:08.499Z,1017.37
2019-02-07T03:28:49.108Z,1017.37
2019-02-07T03:29:29.708Z,1017.37
2019-02-07T03:30:10.312Z,1017.36
2019-02-07T03:30:50.917Z,1017.34
2019-02-07T03:31:31.522Z,1017.35
2019-02-07T03:32:12.117Z,1017.32
2019-02-07T03:32:52.724Z,1017.33
2019-02-07T03:33:33.322Z,1017.31
2019-02-07T03:34:13.934Z,1017.31
2019-02-07T03:34:54.533Z,1017.29
2019-02-07T03:35:35.142Z,1017.27
2019-02-07T03:36:15.748Z,1017.25
2019-02-07T03:36:56.348Z,1017.24
2019-02-07T03:37:36.946Z,1017.22
2019-02-07T03:38:17.551Z,1017.21
2019-02-07T03:38:58.137Z,1017.18
2019-02-07T03:39:38.743Z,1017.18
2019-02-07T03:40:19.350Z,1017.16
2019-02-07T03:40:59.958Z,1017.19
2019-02-07T03:41:40.572Z,1017.18
2019-02-07T03:42:21.174Z,1017.16
2019-02-07T03:43:01.775Z,1017.17
2019-02-07T03:43:42.383Z,1017.17
2019-02-07T03:44:22.984Z,1017.17
2019-02-07T03:45:03.564Z,1017.19
2019-02-07T03:45:44.156Z,1017.16
2019-02-07T03:46:24.762Z,1017.16
2019-02-07T03:47:05.372Z,1017.13
2019-02-07T03:47:45.973Z,1017.13
2019-02-07T03:48:26.577Z,1017.13
2019-02-07T03:49:07.170Z,1017.13
2019-02-07T03:49:47.772Z,1017.12
2019-02-07T03:50:28.370Z,1017.11
2019-02-07T03:51:08.986Z,1017.1
2019-02-07T03:51:49.574Z,1017.13
2019-02-07T03:52:30.178Z,1017.16
2019-02-07T03:53:10.762Z,1017.14
2019-02-07T03:53:51.368Z,1017.18
2019-02-07T03:54:31.992Z,1017.16
2019-02-07T03:55:12.590Z,1017.2
2019-02-07T03:55:53.218Z,1017.19
2019-02-07T03:56:33.837Z,1017.18
2019-02-07T03:57:14.448Z,1017.15
2019-02-07T03:57:55.052Z,1017.14
2019-02-07T03:58:35.646Z,1017.15
2019-02-07T03:59:16.314Z,1017.15
2019-02-07T03:59:56.912Z,1017.12
2019-02-07T04:00:37.512Z,1017.13
2019-02-07T04:01:18.146Z,1017.14
2019-02-07T04:01:58.744Z,1017.13
2019-02-07T04:02:40.637Z,1017.15
2019-02-07T04:03:19.964Z,1017.16
2019-02-07T04:04:00.562Z,1017.17
2019-02-07T04:04:41.165Z,1017.15
2019-02-07T04:05:21.775Z,1017.17
2019-02-07T04:06:02.385Z,1017.18
2019-02-07T04:06:43.008Z,1017.2
2019-02-07T04:07:23.713Z,1017.18
2019-02-07T04:08:04.231Z,1017.17
2019-02-07T04:08:44.834Z,1017.16
2019-02-07T04:09:25.443Z,1017.18
2019-02-07T04:10:06.092Z,1017.18
2019-02-07T04:10:46.722Z,1017.23
2019-02-07T04:11:27.354Z,1017.24
2019-02-07T04:12:07.990Z,1017.27
2019-02-07T04:12:48.596Z,1017.21
2019-02-07T04:13:29.192Z,1017.25
2019-02-07T04:14:09.813Z,1017.23
2019-02-07T04:14:50.414Z,1017.2
2019-02-07T04:15:31.063Z,1017.2
2019-02-07T04:16:14.923Z,1017.19
2019-02-07T04:16:52.344Z,1017.16
2019-02-07T04:17:32.968Z,1017.18
2019-02-07T04:18:13.554Z,1017.14
2019-02-07T04:18:54.143Z,1017.13
2019-02-07T04:19:34.744Z,1017.13
2019-02-07T04:20:15.474Z,1017.16
2019-02-07T04:20:55.965Z,1017.16
2019-02-07T04:21:36.569Z,1017.16
2019-02-07T04:22:17.170Z,1017.17
2019-02-07T04:22:57.768Z,1017.16
2019-02-07T04:23:38.372Z,1017.16
2019-02-07T04:24:18.989Z,1017.2
2019-02-07T04:24:59.613Z,1017.19
2019-02-07T04:25:40.234Z,1017.18
2019-02-07T04:26:20.857Z,1017.16
2019-02-07T04:27:01.471Z,1017.17
2019-02-07T04:27:42.085Z,1017.17
2019-02-07T04:28:22.698Z,1017.17
2019-02-07T04:29:03.298Z,1017.17
2019-02-07T04:29:43.904Z,1017.2
2019-02-07T04:30:24.496Z,1017.19
2019-02-07T04:31:05.101Z,1017.23
2019-02-07T04:31:45.700Z,1017.25
2019-02-07T04:32:26.319Z,1017.26
2019-02-07T04:33:06.965Z,1017.23
2019-02-07T04:33:47.596Z,1017.26
2019-02-07T04:34:28.195Z,1017.26
2019-02-07T04:35:08.811Z,1017.31
2019-02-07T04:35:49.394Z,1017.35
2019-02-07T04:36:29.993Z,1017.32
2019-02-07T04:37:10.605Z,1017.32
2019-02-07T04:37:51.198Z,1017.32
2019-02-07T04:38:31.800Z,1017.29
2019-02-07T04:39:12.411Z,1017.25
2019-02-07T04:39:53.041Z,1017.22
2019-02-07T04:40:33.650Z,1017.26
2019-02-07T04:41:14.250Z,1017.22
2019-02-07T04:41:54.861Z,1017.26
2019-02-07T04:42:35.473Z,1017.25
2019-02-07T04:43:16.069Z,1017.24
2019-02-07T04:43:56.675Z,1017.27
2019-02-07T04:44:37.281Z,1017.26
2019-02-07T04:45:17.909Z,1017.2
2019-02-07T04:45:58.520Z,1017.18
2019-02-07T04:46:39.127Z,1017.22
2019-02-07T04:47:19.738Z,1017.29
2019-02-07T04:48:00.357Z,1017.25
2019-02-07T04:48:40.977Z,1017.3
2019-02-07T04:49:21.590Z,1017.27
2019-02-07T04:50:02.185Z,1017.31
2019-02-07T04:50:42.782Z,1017.25
2019-02-07T04:51:23.383Z,1017.27
2019-02-07T04:52:03.996Z,1017.23
2019-02-07T04:52:44.605Z,1017.25
2019-02-07T04:53:25.201Z,1017.29
2019-02-07T04:54:05.805Z,1017.28
2019-02-07T04:54:46.410Z,1017.24
2019-02-07T04:55:27.004Z,1017.25
2019-02-07T04:56:07.633Z,1017.25
2019-02-07T04:56:48.267Z,1017.24
2019-02-07T04:57:28.871Z,1017.22
2019-02-07T04:58:09.456Z,1017.21
2019-02-07T04:58:50.077Z,1017.22
2019-02-07T04:59:30.673Z,1017.24
2019-02-07T05:00:11.274Z,1017.2
2019-02-07T05:00:51.870Z,1017.21
2019-02-07T05:01:32.465Z,1017.18
2019-02-07T05:02:13.055Z,1017.18
2019-02-07T05:02:53.669Z,1017.22
2019-02-07T05:03:34.262Z,1017.2
2019-02-07T05:04:14.859Z,1017.23
2019-02-07T05:04:55.478Z,1017.24
2019-02-07T05:05:36.069Z,1017.19
2019-02-07T05:06:16.691Z,1017.21
2019-02-07T05:06:57.298Z,1017.21
2019-02-07T05:07:37.926Z,1017.25
2019-02-07T05:08:18.528Z,1017.19
2019-02-07T05:08:59.127Z,1017.21
2019-02-07T05:09:39.738Z,1017.2
2019-02-07T05:10:20.361Z,1017.18
2019-02-07T05:11:00.952Z,1017.21
2019-02-07T05:11:41.556Z,1017.21
2019-02-07T05:12:22.138Z,1017.19
2019-02-07T05:13:02.739Z,1017.19
2019-02-07T05:13:43.353Z,1017.15
2019-02-07T05:14:23.943Z,1017.13
2019-02-07T05:15:04.547Z,1017.13
2019-02-07T05:15:45.143Z,1017.13
2019-02-07T05:16:25.755Z,1017.17
2019-02-07T05:17:06.369Z,1017.1
2019-02-07T05:17:46.982Z,1017.12
2019-02-07T05:18:27.610Z,1017.13
2019-02-07T05:19:08.243Z,1017.13
2019-02-07T05:19:48.872Z,1017.11
2019-02-07T05:20:29.476Z,1017.11
2019-02-07T05:21:10.103Z,1017.11
2019-02-07T05:21:50.701Z,1017.14
2019-02-07T05:22:31.397Z,1017.16
2019-02-07T05:23:11.908Z,1017.1
2019-02-07T05:23:52.587Z,1017.11
2019-02-07T05:24:33.129Z,1017.17
2019-02-07T05:25:13.728Z,1017.12
2019-02-07T05:25:54.353Z,1017.12
2019-02-07T05:26:34.946Z,1017.08
2019-02-07T05:27:15.543Z,1017.11
2019-02-07T05:27:56.181Z,1017.09
2019-02-07T05:28:36.789Z,1017.08
2019-02-07T05:29:17.401Z,1017.1
2019-02-07T05:29:58.011Z,1017.09
2019-02-07T05:30:38.645Z,1017.13
2019-02-07T05:31:19.263Z,1017.08
2019-02-07T05:31:59.861Z,1017.07
2019-02-07T05:32:40.459Z,1017.03
2019-02-07T05:33:21.061Z,1017.06
2019-02-07T05:34:01.657Z,1017.05
2019-02-07T05:34:42.252Z,1017.08
2019-02-07T05:35:23.010Z,1017.08
2019-02-07T05:36:03.474Z,1017.09
2019-02-07T05:36:44.067Z,1017.1
2019-02-07T05:37:24.663Z,1017.08
2019-02-07T05:38:05.277Z,1017.09
2019-02-07T05:38:45.879Z,1017.08
2019-02-07T05:39:26.497Z,1017.06
2019-02-07T05:40:07.100Z,1017.09
2019-02-07T05:40:47.715Z,1017.1
2019-02-07T05:41:28.310Z,1017.08
2019-02-07T05:42:08.911Z,1017.08
2019-02-07T05:42:49.513Z,1017.11
2019-02-07T05:43:30.104Z,1017.11
2019-02-07T05:44:10.701Z,1017.13
2019-02-07T05:44:51.292Z,1017.11
2019-02-07T05:45:31.888Z,1017.1
2019-02-07T05:46:12.496Z,1017.1
2019-02-07T05:46:53.084Z,1017.11
2019-02-07T05:47:33.691Z,1017.11
2019-02-07T05:48:14.302Z,1017.08
2019-02-07T05:48:54.908Z,1017.11
2019-02-07T05:49:35.502Z,1017.12
2019-02-07T05:50:16.103Z,1017.07
2019-02-07T05:50:56.700Z,1017.11
2019-02-07T05:51:37.327Z,1017.16
2019-02-07T05:52:17.923Z,1017.14
2019-02-07T05:52:58.520Z,1017.13
2019-02-07T05:53:39.138Z,1017.11
2019-02-07T05:54:19.773Z,1017.13
2019-02-07T05:55:00.388Z,1017.14
2019-02-07T05:55:42.471Z,1017.12
2019-02-07T05:56:24.981Z,1017.16
2019-02-07T05:57:05.597Z,1017.17
2019-02-07T05:57:46.192Z,1017.17
2019-02-07T05:58:26.797Z,1017.13
2019-02-07T05:59:07.410Z,1017.17
2019-02-07T05:59:48.048Z,1017.12
2019-02-07T06:00:28.637Z,1017.13
2019-02-07T06:01:09.293Z,1017.12
2019-02-07T06:01:49.900Z,1017.13
2019-02-07T06:02:30.499Z,1017.16
2019-02-07T06:03:11.121Z,1017.12
2019-02-07T06:03:51.743Z,1017.09
2019-02-07T06:04:32.485Z,1017.06
2019-02-07T06:05:13.105Z,1017.05
2019-02-07T06:05:53.803Z,1017.02
2019-02-07T06:06:34.427Z,1017.05
2019-02-07T06:07:15.048Z,1017.01
2019-02-07T06:07:55.688Z,1017.02
2019-02-07T06:08:36.419Z,1016.98
2019-02-07T06:09:17.092Z,1017.02
2019-02-07T06:09:57.642Z,1017.03
2019-02-07T06:10:38.241Z,1017.01
2019-02-07T06:11:18.845Z,1017
2019-02-07T06:11:59.462Z,1016.99
2019-02-07T06:12:40.074Z,1017
2019-02-07T06:13:20.691Z,1017.04
2019-02-07T06:14:01.283Z,1017.02
2019-02-07T06:14:41.933Z,1017.07
2019-02-07T06:15:22.538Z,1017.06
2019-02-07T06:16:03.172Z,1017.04
2019-02-07T06:16:43.777Z,1017.03
2019-02-07T06:17:24.392Z,1017.06
2019-02-07T06:18:04.986Z,1017.1
2019-02-07T06:18:45.586Z,1017.13
2019-02-07T06:19:26.197Z,1017.12
2019-02-07T06:20:06.801Z,1017.14
2019-02-07T06:20:47.417Z,1017.13
2019-02-07T06:21:28.034Z,1017.12
2019-02-07T06:22:08.628Z,1017.15
2019-02-07T06:22:49.247Z,1017.13
2019-02-07T06:23:29.864Z,1017.13
2019-02-07T06:24:10.472Z,1017.12
2019-02-07T06:24:51.103Z,1017.12
2019-02-07T06:25:31.708Z,1017.15
2019-02-07T06:26:12.326Z,1017.16
2019-02-07T06:26:54.532Z,1017.13
2019-02-07T06:27:36.153Z,1017.1
2019-02-07T06:28:16.772Z,1017.09
2019-02-07T06:28:57.698Z,1017.1
2019-02-07T06:29:37.975Z,1017.08
2019-02-07T06:30:18.601Z,1017.07
2019-02-07T06:30:59.189Z,1017.08
2019-02-07T06:31:39.838Z,1017.05
2019-02-07T06:32:20.438Z,1017.1
2019-02-07T06:33:01.059Z,1017.1
2019-02-07T06:33:41.661Z,1017.12
2019-02-07T06:34:28.843Z,1017.12
2019-02-07T06:35:04.647Z,1017.11
2019-02-07T06:35:45.239Z,1017.1
2019-02-07T06:36:25.853Z,1017.11
2019-02-07T06:37:06.497Z,1017.15
2019-02-07T06:37:47.097Z,1017.14
2019-02-07T06:38:27.689Z,1017.14
2019-02-07T06:39:08.307Z,1017.11
2019-02-07T06:39:48.919Z,1017.12
2019-02-07T06:40:29.533Z,1017.12
2019-02-07T06:41:10.166Z,1017.11
2019-02-07T06:41:50.888Z,1017.14
2019-02-07T06:42:31.429Z,1017.15
2019-02-07T06:43:12.053Z,1017.15
2019-02-07T06:43:52.668Z,1017.17
2019-02-07T06:44:33.260Z,1017.18
2019-02-07T06:45:13.863Z,1017.16
2019-02-07T06:45:54.516Z,1017.14
2019-02-07T06:46:35.168Z,1017.19
2019-02-07T06:47:15.773Z,1017.19
2019-02-07T06:47:56.367Z,1017.17
2019-02-07T06:48:36.967Z,1017.18
2019-02-07T06:49:17.591Z,1017.15
2019-02-07T06:49:58.190Z,1017.19
2019-02-07T06:50:38.783Z,1017.19
2019-02-07T06:51:19.378Z,1017.18
2019-02-07T06:51:59.983Z,1017.2
2019-02-07T06:52:40.581Z,1017.17
2019-02-07T06:53:21.191Z,1017.24
2019-02-07T06:54:01.799Z,1017.19
2019-02-07T06:54:42.399Z,1017.21
2019-02-07T06:55:22.987Z,1017.22
2019-02-07T06:56:03.614Z,1017.25
2019-02-07T06:56:44.225Z,1017.22
2019-02-07T06:57:24.847Z,1017.21
2019-02-07T06:58:05.455Z,1017.21
2019-02-07T06:58:46.061Z,1017.2
2019-02-07T06:59:26.665Z,1017.22
2019-02-07T07:00:07.291Z,1017.22
2019-02-07T07:00:47.891Z,1017.22
2019-02-07T07:01:28.519Z,1017.24
2019-02-07T07:02:09.105Z,1017.24
2019-02-07T07:02:49.719Z,1017.28
2019-02-07T07:03:30.309Z,1017.28
2019-02-07T07:04:10.983Z,1017.3
2019-02-07T07:04:51.595Z,1017.29
2019-02-07T07:05:32.205Z,1017.27
2019-02-07T07:06:12.799Z,1017.29
2019-02-07T07:06:53.387Z,1017.29
2019-02-07T07:07:33.980Z,1017.29
2019-02-07T07:08:14.641Z,1017.32
2019-02-07T07:08:55.227Z,1017.37
2019-02-07T07:09:35.838Z,1017.37
2019-02-07T07:10:16.449Z,1017.42
2019-02-07T07:10:57.049Z,1017.33
2019-02-07T07:11:37.643Z,1017.35
2019-02-07T07:12:18.258Z,1017.34
2019-02-07T07:12:58.868Z,1017.31
2019-02-07T07:13:39.505Z,1017.33
2019-02-07T07:14:20.111Z,1017.36
2019-02-07T07:15:00.705Z,1017.39
2019-02-07T07:15:41.359Z,1017.4
2019-02-07T07:16:21.976Z,1017.41
2019-02-07T07:17:02.570Z,1017.42
2019-02-07T07:17:43.171Z,1017.4
2019-02-07T07:18:23.798Z,1017.44
2019-02-07T07:19:04.411Z,1017.42
2019-02-07T07:19:45.019Z,1017.43
2019-02-07T07:20:25.613Z,1017.43
2019-02-07T07:21:06.220Z,1017.45
2019-02-07T07:21:46.851Z,1017.44
2019-02-07T07:22:27.457Z,1017.47
2019-02-07T07:23:08.081Z,1017.52
2019-02-07T07:23:48.691Z,1017.56
2019-02-07T07:24:29.293Z,1017.52
2019-02-07T07:25:09.885Z,1017.54
2019-02-07T07:25:50.497Z,1017.52
2019-02-07T07:26:31.099Z,1017.51
2019-02-07T07:27:11.708Z,1017.49
2019-02-07T07:27:52.322Z,1017.51
2019-02-07T07:28:32.927Z,1017.5
2019-02-07T07:29:13.540Z,1017.5
2019-02-07T07:29:54.149Z,1017.54
2019-02-07T07:30:34.754Z,1017.52
2019-02-07T07:31:15.351Z,1017.54
2019-02-07T07:31:55.954Z,1017.51
2019-02-07T07:32:36.559Z,1017.56
2019-02-07T07:33:17.145Z,1017.57
2019-02-07T07:33:57.761Z,1017.57
2019-02-07T07:34:40.053Z,1017.57
2019-02-07T07:35:20.659Z,1017.58
2019-02-07T07:36:01.257Z,1017.56
2019-02-07T07:36:41.872Z,1017.56
2019-02-07T07:37:22.474Z,1017.58
2019-02-07T07:38:03.074Z,1017.58
2019-02-07T07:38:43.679Z,1017.57
2019-02-07T07:39:24.281Z,1017.62
2019-02-07T07:40:04.919Z,1017.6
2019-02-07T07:40:45.517Z,1017.61
2019-02-07T07:41:28.043Z,1017.61
2019-02-07T07:42:08.709Z,1017.64
2019-02-07T07:42:49.295Z,1017.63
2019-02-07T07:43:30.435Z,1017.58
2019-02-07T07:44:10.485Z,1017.6
2019-02-07T07:44:51.074Z,1017.6
2019-02-07T07:45:31.685Z,1017.6
2019-02-07T07:46:12.279Z,1017.64
2019-02-07T07:46:52.885Z,1017.64
2019-02-07T07:47:35.853Z,1017.65
2019-02-07T07:48:14.099Z,1017.69
2019-02-07T07:48:54.697Z,1017.68
2019-02-07T07:49:35.293Z,1017.68
2019-02-07T07:50:15.883Z,1017.65
2019-02-07T07:50:56.513Z,1017.65
2019-02-07T07:51:38.805Z,1017.65
2019-02-07T07:52:19.459Z,1017.66
2019-02-07T07:53:00.080Z,1017.71
2019-02-07T07:53:40.831Z,1017.7
2019-02-07T07:54:21.417Z,1017.73
2019-02-07T07:55:02.018Z,1017.71
2019-02-07T07:55:42.623Z,1017.71
2019-02-07T07:56:23.261Z,1017.76
2019-02-07T07:57:05.740Z,1017.75
2019-02-07T07:57:46.362Z,1017.76
2019-02-07T07:58:26.991Z,1017.75
2019-02-07T07:59:07.595Z,1017.72
2019-02-07T07:59:48.211Z,1017.71
2019-02-07T08:00:28.809Z,1017.71
2019-02-07T08:01:09.497Z,1017.69
2019-02-07T08:01:50.003Z,1017.69
2019-02-07T08:02:30.589Z,1017.66
2019-02-07T08:03:11.213Z,1017.67
2019-02-07T08:03:53.819Z,1017.7
2019-02-07T08:04:34.435Z,1017.67
2019-02-07T08:05:15.030Z,1017.69
2019-02-07T08:05:55.625Z,1017.66
2019-02-07T08:06:36.231Z,1017.71
2019-02-07T08:07:16.848Z,1017.69
2019-02-07T08:07:57.440Z,1017.69
2019-02-07T08:08:38.031Z,1017.7
2019-02-07T08:09:18.640Z,1017.72
2019-02-07T08:09:59.253Z,1017.7
2019-02-07T08:10:39.847Z,1017.68
2019-02-07T08:11:20.439Z,1017.68
2019-02-07T08:12:01.052Z,1017.68
2019-02-07T08:12:41.655Z,1017.68
2019-02-07T08:13:22.267Z,1017.73